CFSAM CYHZ-KTEB
Flight info
| Callsign | CFSAM |
|---|---|
| Flight time | N/A |
| Altitude | 43000 |
| Route | SENVI DCT VIGMA DCT ALLEX DCT ALB/N0442F160 T299 AGNEZ V489 COATE |
| Aircraft | C750/M-SBDE3FGHRWXY/S |
Departure
| Time | 2026-05-07 01:57 |
|---|---|
| Airport | Halifax / Stanfield International Airport (CYHZ) |
Arrival
| Time | N/A |
|---|---|
| Airport | Teterboro Airport (KTEB) |
| Time | Latitude | Longitude | Altitude | Speed | Heading |
|---|---|---|---|---|---|
| 2026-05-07 01:40 | 44.87170 | -63.53182 | 449 ft | 0 kts | 297° |
| 2026-05-07 01:50 | 44.87169 | -63.53186 | 449 ft | 1 kts | 264° |
| 2026-05-07 01:50 | 44.87139 | -63.53204 | 449 ft | 7 kts | 189° |
| 2026-05-07 01:50 | 44.87086 | -63.53220 | 449 ft | 9 kts | 201° |
| 2026-05-07 01:51 | 44.87027 | -63.53261 | 449 ft | 9 kts | 208° |
| 2026-05-07 01:51 | 44.86965 | -63.53307 | 449 ft | 12 kts | 208° |
| 2026-05-07 01:51 | 44.86894 | -63.53309 | 449 ft | 10 kts | 142° |
| 2026-05-07 01:51 | 44.86849 | -63.53234 | 449 ft | 11 kts | 128° |
| 2026-05-07 01:52 | 44.86782 | -63.53127 | 449 ft | 19 kts | 131° |
| 2026-05-07 01:52 | 44.86733 | -63.52978 | 449 ft | 18 kts | 58° |
| 2026-05-07 01:52 | 44.86823 | -63.52828 | 448 ft | 21 kts | 46° |
| 2026-05-07 01:52 | 44.86939 | -63.52689 | 448 ft | 23 kts | 34° |
| 2026-05-07 01:53 | 44.87083 | -63.52541 | 449 ft | 28 kts | 36° |
| 2026-05-07 01:53 | 44.87258 | -63.52371 | 448 ft | 33 kts | 35° |
| 2026-05-07 01:53 | 44.87460 | -63.52174 | 448 ft | 38 kts | 34° |
| 2026-05-07 01:53 | 44.87668 | -63.51964 | 448 ft | 36 kts | 34° |
| 2026-05-07 01:54 | 44.87867 | -63.51774 | 449 ft | 34 kts | 37° |
| 2026-05-07 01:54 | 44.88051 | -63.51586 | 448 ft | 32 kts | 35° |
| 2026-05-07 01:54 | 44.88228 | -63.51414 | 448 ft | 30 kts | 35° |
| 2026-05-07 01:54 | 44.88386 | -63.51248 | 448 ft | 24 kts | 40° |
| 2026-05-07 01:55 | 44.88381 | -63.51149 | 448 ft | 10 kts | 119° |
| 2026-05-07 01:55 | 44.88327 | -63.51048 | 446 ft | 15 kts | 139° |
| 2026-05-07 01:55 | 44.88257 | -63.51041 | 446 ft | 4 kts | 187° |
| 2026-05-07 01:55 | 44.88255 | -63.51042 | 446 ft | 0 kts | 204° |
| 2026-05-07 01:56 | 44.88180 | -63.51119 | 443 ft | 48 kts | 215° |
| 2026-05-07 01:57 | 44.87594 | -63.51702 | 469 ft | 141 kts | 216° |
| 2026-05-07 01:57 | 44.86725 | -63.52583 | 873 ft | 165 kts | 216° |
| 2026-05-07 01:57 | 44.85853 | -63.53744 | 1499 ft | 177 kts | 230° |
| 2026-05-07 01:57 | 44.85158 | -63.55114 | 2469 ft | 168 kts | 242° |
| 2026-05-07 01:58 | 44.84667 | -63.56680 | 2995 ft | 183 kts | 249° |
| 2026-05-07 01:58 | 44.84227 | -63.58429 | 3659 ft | 193 kts | 252° |
| 2026-05-07 01:58 | 44.83829 | -63.60244 | 4500 ft | 194 kts | 254° |
| 2026-05-07 01:58 | 44.83506 | -63.62097 | 5308 ft | 196 kts | 259° |
| 2026-05-07 01:59 | 44.83263 | -63.64001 | 6073 ft | 198 kts | 257° |
| 2026-05-07 01:59 | 44.82847 | -63.65860 | 6842 ft | 202 kts | 251° |
| 2026-05-07 01:59 | 44.82417 | -63.67830 | 7236 ft | 226 kts | 255° |
| 2026-05-07 01:59 | 44.82007 | -63.70101 | 7544 ft | 253 kts | 256° |
| 2026-05-07 02:00 | 44.81562 | -63.72624 | 7801 ft | 278 kts | 256° |
| 2026-05-07 02:00 | 44.81056 | -63.75381 | 7952 ft | 303 kts | 255° |
| 2026-05-07 02:00 | 44.80511 | -63.78299 | 7992 ft | 316 kts | 255° |
| 2026-05-07 02:00 | 44.79934 | -63.81411 | 8497 ft | 333 kts | 256° |
| 2026-05-07 02:01 | 44.79352 | -63.84565 | 9516 ft | 334 kts | 256° |
| 2026-05-07 02:01 | 44.78757 | -63.87762 | 10244 ft | 340 kts | 255° |
| 2026-05-07 02:01 | 44.78151 | -63.91004 | 10966 ft | 344 kts | 255° |
| 2026-05-07 02:01 | 44.77540 | -63.94280 | 11681 ft | 348 kts | 255° |
| 2026-05-07 02:02 | 44.76923 | -63.97591 | 12362 ft | 352 kts | 255° |
| 2026-05-07 02:02 | 44.76298 | -64.00936 | 13036 ft | 355 kts | 255° |
| 2026-05-07 02:02 | 44.75663 | -64.04312 | 13693 ft | 359 kts | 255° |
| 2026-05-07 02:02 | 44.75022 | -64.07723 | 14327 ft | 362 kts | 255° |
| 2026-05-07 02:03 | 44.74374 | -64.11169 | 14950 ft | 366 kts | 255° |
| 2026-05-07 02:03 | 44.73719 | -64.14641 | 15554 ft | 369 kts | 255° |
| 2026-05-07 02:03 | 44.73132 | -64.18172 | 16115 ft | 373 kts | 259° |
| 2026-05-07 02:03 | 44.72628 | -64.21766 | 16734 ft | 376 kts | 258° |
| 2026-05-07 02:04 | 44.72063 | -64.25378 | 17366 ft | 379 kts | 257° |
| 2026-05-07 02:04 | 44.71514 | -64.28973 | 17977 ft | 383 kts | 258° |
| 2026-05-07 02:04 | 44.70983 | -64.32658 | 18600 ft | 386 kts | 258° |
| 2026-05-07 02:04 | 44.70440 | -64.36385 | 19232 ft | 390 kts | 258° |
| 2026-05-07 02:05 | 44.69875 | -64.40133 | 19860 ft | 394 kts | 258° |
| 2026-05-07 02:05 | 44.69304 | -64.43926 | 20491 ft | 398 kts | 258° |
| 2026-05-07 02:05 | 44.68737 | -64.47747 | 21111 ft | 401 kts | 258° |
| 2026-05-07 02:05 | 44.68162 | -64.51602 | 21695 ft | 405 kts | 258° |